Terminal Aerodrome Forecast
Issued by NWS

Home | Current Version | Previous Version | Text Only | Print | Product List | Glossary On
Versions: 1 2 3 4 5 6 7 8 9 10 11 12 13 14 15 16 17 18
000
FTUS43 KDLH 260528
TAFHYR
TAF
KHYR 260528Z 2606/2706 VRB03KT 6SM BR VCSH OVC008
      TEMPO 2606/2610 2SM SHRA BR OVC003
     FM261000 VRB03KT 2SM -SHRA BR OVC003
     FM261500 35004KT 3SM BR VCSH OVC008
     FM261800 31005KT P6SM VCSH OVC010
     FM270000 29005KT P6SM BKN020=

USA.gov is the U.S. government's official web portal to all federal, state and local government web resources and services.